Time;durP1;ratioP1;P1;durP2;ratioP2;P2;SDS_P1;SDS_P2;PMS_P1;PMS_P2;Temp;Humidity;BMP_temperature;BMP_pressure;BME280_temperature;BME280_humidity;BME280_pressure;Samples;Min_cycle;Max_cycle;Signal;HPM_P1;HPM_P2
2021/06/30 00:01:07;;;;;;;12.40;8.70;;;;;;;;;;5051807;28;20461;-85
2021/06/30 00:03:32;;;;;;;16.13;8.57;;;;;;;;;;5051591;28;20057;-85
2021/06/30 00:05:57;;;;;;;17.70;8.18;;;;;;;;;;5053334;28;20103;-85
2021/06/30 00:08:22;;;;;;;13.90;8.77;;;;;;;;;;5055470;28;20071;-85
2021/06/30 00:10:48;;;;;;;10.98;7.90;;;;;;;;;;5055568;28;20479;-86
2021/06/30 00:13:13;;;;;;;9.57;6.40;;;;;;;;;;5055570;28;20100;-86
2021/06/30 00:15:39;;;;;;;11.40;6.50;;;;;;;;;;5055413;28;20021;-85
2021/06/30 00:18:04;;;;;;;10.13;6.03;;;;;;;;;;5055223;28;20059;-86
2021/06/30 00:20:30;;;;;;;9.18;5.43;;;;;;;;;;5055345;28;20028;-86
2021/06/30 00:22:55;;;;;;;9.05;5.80;;;;;;;;;;5055455;28;20021;-85
2021/06/30 00:25:21;;;;;;;11.60;4.15;;;;;;;;;;5056780;28;20028;-86
2021/06/30 00:27:47;;;;;;;10.70;4.45;;;;;;;;;;5055107;28;20090;-85
2021/06/30 00:30:12;;;;;;;7.50;3.97;;;;;;;;;;5054917;28;20029;-85
2021/06/30 00:32:38;;;;;;;19.88;3.70;;;;;;;;;;5056319;28;20495;-86
2021/06/30 00:35:03;;;;;;;4.28;2.90;;;;;;;;;;5055200;28;20437;-85
2021/06/30 00:37:32;;;;;;;5.50;2.67;;;;;;;;;;5056279;28;20024;-86
2021/06/30 00:39:57;;;;;;;4.25;2.80;;;;;;;;;;5070095;28;20105;-85
2021/06/30 00:42:22;;;;;;;7.30;2.92;;;;;;;;;;5074996;28;20440;-85
2021/06/30 00:44:47;;;;;;;4.82;3.22;;;;;;;;;;5074930;28;20472;-85
2021/06/30 00:47:13;;;;;;;8.05;2.67;;;;;;;;;;5069830;28;20028;-85
2021/06/30 00:49:38;;;;;;;3.40;2.80;;;;;;;;;;5069414;28;20081;-85
2021/06/30 00:52:04;;;;;;;6.88;2.50;;;;;;;;;;5074850;28;20020;-86
2021/06/30 00:54:29;;;;;;;5.35;2.00;;;;;;;;;;5066229;28;20025;-85
2021/06/30 00:56:54;;;;;;;7.55;2.50;;;;;;;;;;5073102;28;20459;-85
2021/06/30 00:59:20;;;;;;;2.90;2.05;;;;;;;;;;5074798;28;20054;-85
2021/06/30 01:01:45;;;;;;;6.03;1.92;;;;;;;;;;5074732;28;20028;-85
2021/06/30 01:04:10;;;;;;;3.70;2.17;;;;;;;;;;5075870;28;20052;-85
2021/06/30 01:06:35;;;;;;;3.47;2.30;;;;;;;;;;5074703;28;20025;-85
2021/06/30 01:09:03;;;;;;;11.23;2.80;;;;;;;;;;5075741;28;20065;-85
2021/06/30 01:11:30;;;;;;;5.60;2.55;;;;;;;;;;5074591;28;20529;-85
2021/06/30 01:13:55;;;;;;;7.32;2.58;;;;;;;;;;5074197;28;20367;-86
2021/06/30 01:16:20;;;;;;;6.05;3.08;;;;;;;;;;5074060;28;20016;-86
2021/06/30 01:18:45;;;;;;;7.03;3.28;;;;;;;;;;5072478;28;20391;-86
2021/06/30 01:21:11;;;;;;;7.15;3.08;;;;;;;;;;5074339;28;20039;-86
2021/06/30 01:23:36;;;;;;;7.38;4.13;;;;;;;;;;5062057;28;20021;-86
2021/06/30 01:26:03;;;;;;;11.88;3.65;;;;;;;;;;5074914;28;20047;-85
2021/06/30 01:28:28;;;;;;;5.25;3.30;;;;;;;;;;5074213;28;20025;-86
2021/06/30 01:30:54;;;;;;;8.48;3.03;;;;;;;;;;5073938;28;20090;-85
2021/06/30 01:33:20;;;;;;;12.73;4.00;;;;;;;;;;5073972;28;20058;-85
2021/06/30 01:35:45;;;;;;;12.73;3.35;;;;;;;;;;5060074;28;20065;-86
2021/06/30 01:38:10;;;;;;;7.13;3.67;;;;;;;;;;5073957;28;20024;-85
2021/06/30 01:40:36;;;;;;;9.05;2.90;;;;;;;;;;5075275;28;20019;-86
2021/06/30 01:43:02;;;;;;;9.52;2.92;;;;;;;;;;5073781;28;20066;-85
2021/06/30 01:45:27;;;;;;;5.13;3.08;;;;;;;;;;5057066;28;20029;-85
2021/06/30 01:47:53;;;;;;;6.78;2.80;;;;;;;;;;5067551;28;20039;-86
2021/06/30 01:50:18;;;;;;;5.38;2.65;;;;;;;;;;5073852;28;20020;-86
2021/06/30 01:52:44;;;;;;;4.50;2.10;;;;;;;;;;5073493;28;20021;-86
2021/06/30 01:55:10;;;;;;;5.70;2.40;;;;;;;;;;5059999;28;20013;-85
2021/06/30 01:57:41;;;;;;;5.38;2.33;;;;;;;;;;5069209;28;20024;-86
2021/06/30 02:00:07;;;;;;;4.93;2.88;;;;;;;;;;5073518;28;20411;-85
2021/06/30 02:02:32;;;;;;;12.40;2.85;;;;;;;;;;5073506;28;20050;-86
2021/06/30 02:05:11;;;;;;;4.30;2.85;;;;;;;;;;5073252;28;20090;-84
2021/06/30 02:07:36;;;;;;;3.45;2.60;;;;;;;;;;5065018;28;20475;-86
2021/06/30 02:10:06;;;;;;;4.35;2.80;;;;;;;;;;5056695;28;20062;-85
2021/06/30 02:12:32;;;;;;;7.18;2.80;;;;;;;;;;5073447;28;20022;-86
2021/06/30 02:14:57;;;;;;;4.55;3.22;;;;;;;;;;5059221;28;20012;-85
2021/06/30 02:17:22;;;;;;;6.78;2.83;;;;;;;;;;5070116;28;20024;-86
2021/06/30 02:19:49;;;;;;;8.73;3.10;;;;;;;;;;5073223;28;20492;-86
2021/06/30 02:22:15;;;;;;;9.25;3.40;;;;;;;;;;5072895;28;20029;-86
2021/06/30 02:24:40;;;;;;;4.00;2.75;;;;;;;;;;5073158;28;20052;-86
2021/06/30 02:27:05;;;;;;;6.25;2.65;;;;;;;;;;5069176;28;20058;-86
2021/06/30 02:29:31;;;;;;;6.53;2.30;;;;;;;;;;5072203;28;20051;-86
2021/06/30 02:31:56;;;;;;;2.97;2.50;;;;;;;;;;5072802;28;20044;-85
2021/06/30 02:34:21;;;;;;;4.03;2.50;;;;;;;;;;5070745;28;20380;-86
2021/06/30 02:36:46;;;;;;;6.13;2.63;;;;;;;;;;5072940;28;20021;-86
2021/06/30 02:39:12;;;;;;;6.65;2.83;;;;;;;;;;5072645;28;20020;-86
2021/06/30 02:41:37;;;;;;;4.38;2.30;;;;;;;;;;5069611;28;20024;-86
2021/06/30 02:44:02;;;;;;;4.13;2.90;;;;;;;;;;5069112;28;20120;-85
2021/06/30 02:46:28;;;;;;;4.65;2.55;;;;;;;;;;5072620;28;20028;-85
2021/06/30 02:48:53;;;;;;;8.88;2.45;;;;;;;;;;5072543;28;20426;-85
2021/06/30 02:51:18;;;;;;;7.70;2.78;;;;;;;;;;5073332;28;20017;-85
2021/06/30 02:53:44;;;;;;;3.85;2.80;;;;;;;;;;5061061;28;20013;-86
2021/06/30 02:56:09;;;;;;;3.58;2.70;;;;;;;;;;5072361;28;20049;-85
2021/06/30 02:58:34;;;;;;;3.65;2.53;;;;;;;;;;5066153;28;20105;-86
2021/06/30 03:00:59;;;;;;;5.53;2.80;;;;;;;;;;5052521;28;20020;-85
2021/06/30 03:03:24;;;;;;;4.88;2.72;;;;;;;;;;5067552;28;20017;-86
2021/06/30 03:05:49;;;;;;;6.13;3.00;;;;;;;;;;5062584;28;20028;-86
2021/06/30 03:08:15;;;;;;;3.90;2.47;;;;;;;;;;5070354;28;20025;-86
2021/06/30 03:10:40;;;;;;;5.05;3.08;;;;;;;;;;5072288;28;20016;-86
2021/06/30 03:13:05;;;;;;;3.85;2.60;;;;;;;;;;5072340;28;20013;-86
2021/06/30 03:15:30;;;;;;;3.92;2.90;;;;;;;;;;5072190;28;20146;-86
2021/06/30 03:17:56;;;;;;;6.05;2.97;;;;;;;;;;5072420;28;20021;-85
2021/06/30 03:20:21;;;;;;;13.32;3.40;;;;;;;;;;5072171;28;20070;-86
2021/06/30 03:22:46;;;;;;;3.95;2.72;;;;;;;;;;5072188;28;20046;-86
2021/06/30 03:25:13;;;;;;;4.25;2.80;;;;;;;;;;5067793;28;20017;-86
2021/06/30 03:27:38;;;;;;;4.55;2.88;;;;;;;;;;5064904;28;20157;-86
2021/06/30 03:30:04;;;;;;;4.68;3.17;;;;;;;;;;5072003;28;20107;-85
2021/06/30 03:32:30;;;;;;;6.07;3.60;;;;;;;;;;5071941;28;20017;-86
2021/06/30 03:34:55;;;;;;;4.95;3.60;;;;;;;;;;5061679;28;20567;-86
2021/06/30 03:37:20;;;;;;;6.40;4.00;;;;;;;;;;5065945;28;20009;-86
2021/06/30 03:39:45;;;;;;;7.25;3.72;;;;;;;;;;5061388;28;20472;-87
2021/06/30 03:42:10;;;;;;;11.88;3.70;;;;;;;;;;5060700;28;20025;-86
2021/06/30 03:44:36;;;;;;;5.65;3.75;;;;;;;;;;5071754;28;20063;-86
2021/06/30 03:47:01;;;;;;;5.13;3.50;;;;;;;;;;5067929;28;20025;-86
2021/06/30 03:49:26;;;;;;;4.95;3.40;;;;;;;;;;5071720;28;20024;-86
2021/06/30 03:51:51;;;;;;;4.00;2.97;;;;;;;;;;5063795;28;20130;-85
2021/06/30 03:54:17;;;;;;;4.88;3.22;;;;;;;;;;5073098;28;20016;-85
2021/06/30 03:56:42;;;;;;;7.70;3.35;;;;;;;;;;5071730;28;20009;-86
2021/06/30 03:59:07;;;;;;;5.20;3.33;;;;;;;;;;5071848;28;20025;-86
2021/06/30 04:01:32;;;;;;;5.07;3.83;;;;;;;;;;5071683;28;20071;-85
2021/06/30 04:04:01;;;;;;;4.63;3.63;;;;;;;;;;5071803;28;20510;-86
2021/06/30 04:06:26;;;;;;;4.65;3.70;;;;;;;;;;5071598;28;20031;-85
2021/06/30 04:08:51;;;;;;;8.63;3.83;;;;;;;;;;5071639;28;20021;-86
2021/06/30 04:11:17;;;;;;;5.70;3.65;;;;;;;;;;5071604;28;20517;-86
2021/06/30 04:13:42;;;;;;;6.93;4.10;;;;;;;;;;5066139;28;20450;-86
2021/06/30 04:16:08;;;;;;;7.05;4.05;;;;;;;;;;5071732;28;20031;-86
2021/06/30 04:18:33;;;;;;;5.10;3.80;;;;;;;;;;5071473;28;20105;-86
2021/06/30 04:20:58;;;;;;;4.72;3.35;;;;;;;;;;5060676;28;20039;-86
2021/06/30 04:23:23;;;;;;;4.45;3.60;;;;;;;;;;5052264;28;20387;-85
2021/06/30 04:25:49;;;;;;;7.55;3.58;;;;;;;;;;5071656;28;20031;-86
2021/06/30 04:28:14;;;;;;;5.80;3.45;;;;;;;;;;5058749;28;20119;-85
2021/06/30 04:30:40;;;;;;;5.22;3.45;;;;;;;;;;5070067;28;20016;-86
2021/06/30 04:33:05;;;;;;;5.90;3.58;;;;;;;;;;5071488;28;20426;-86
2021/06/30 04:35:30;;;;;;;5.35;3.42;;;;;;;;;;5071394;28;20020;-86
2021/06/30 04:37:56;;;;;;;3.90;3.30;;;;;;;;;;5071472;28;20021;-86
2021/06/30 04:40:21;;;;;;;5.53;3.35;;;;;;;;;;5071484;28;20379;-85
2021/06/30 04:42:46;;;;;;;6.50;3.22;;;;;;;;;;5072730;28;20468;-86
2021/06/30 04:45:11;;;;;;;5.20;3.03;;;;;;;;;;5071409;28;20369;-86
2021/06/30 04:47:36;;;;;;;7.35;4.03;;;;;;;;;;5067189;28;20016;-86
2021/06/30 04:50:03;;;;;;;5.68;3.58;;;;;;;;;;5065269;28;20108;-86
2021/06/30 04:52:28;;;;;;;8.65;3.85;;;;;;;;;;5065588;28;20025;-86
2021/06/30 04:54:53;;;;;;;6.50;3.05;;;;;;;;;;5060746;28;20043;-86
2021/06/30 04:57:18;;;;;;;6.47;3.20;;;;;;;;;;5066527;28;20027;-86
2021/06/30 04:59:46;;;;;;;7.47;3.92;;;;;;;;;;5070545;28;20071;-86
2021/06/30 05:02:12;;;;;;;7.05;3.70;;;;;;;;;;5068418;28;20024;-86
2021/06/30 05:04:37;;;;;;;4.90;3.17;;;;;;;;;;5073680;28;20031;-86
2021/06/30 05:07:02;;;;;;;5.25;3.38;;;;;;;;;;5068490;28;20029;-86
2021/06/30 05:09:27;;;;;;;6.40;3.90;;;;;;;;;;5066496;28;20029;-86
2021/06/30 05:11:52;;;;;;;4.38;3.63;;;;;;;;;;5074502;28;20012;-86
2021/06/30 05:14:18;;;;;;;8.75;3.97;;;;;;;;;;5074628;28;20012;-86
2021/06/30 05:16:43;;;;;;;5.43;3.90;;;;;;;;;;5074423;28;20027;-86
2021/06/30 05:19:09;;;;;;;6.40;4.20;;;;;;;;;;5074550;28;20013;-86
2021/06/30 05:21:34;;;;;;;7.07;4.07;;;;;;;;;;5075651;28;20020;-86
2021/06/30 05:23:59;;;;;;;10.02;4.40;;;;;;;;;;5060044;28;20375;-86
2021/06/30 05:26:24;;;;;;;10.15;4.50;;;;;;;;;;5074368;28;20064;-86
2021/06/30 05:28:50;;;;;;;5.10;3.85;;;;;;;;;;5070614;28;20017;-86
2021/06/30 05:31:15;;;;;;;5.72;4.30;;;;;;;;;;5063657;28;20008;-86
2021/06/30 05:33:40;;;;;;;5.90;4.72;;;;;;;;;;5074201;28;20031;-85
2021/06/30 05:36:05;;;;;;;6.30;4.00;;;;;;;;;;5074171;28;20017;-86
2021/06/30 05:38:31;;;;;;;5.43;4.38;;;;;;;;;;5074110;28;20024;-86
2021/06/30 05:40:56;;;;;;;7.90;4.60;;;;;;;;;;5068832;28;20495;-86
2021/06/30 05:43:21;;;;;;;6.47;4.32;;;;;;;;;;5065104;28;20384;-86
2021/06/30 05:45:47;;;;;;;6.20;3.72;;;;;;;;;;5073645;28;20070;-86
2021/06/30 05:48:12;;;;;;;4.95;3.83;;;;;;;;;;5073727;28;20029;-86
2021/06/30 05:50:37;;;;;;;6.63;3.85;;;;;;;;;;5073902;28;20017;-85
2021/06/30 05:53:03;;;;;;;5.72;3.70;;;;;;;;;;5058004;28;20017;-85
2021/06/30 05:55:28;;;;;;;6.18;3.67;;;;;;;;;;5062586;28;20023;-85
2021/06/30 05:57:53;;;;;;;5.93;3.33;;;;;;;;;;5059987;28;20024;-86
2021/06/30 06:00:19;;;;;;;7.47;3.83;;;;;;;;;;5061953;28;20050;-85
2021/06/30 06:02:45;;;;;;;6.38;4.05;;;;;;;;;;5051833;28;20028;-85
2021/06/30 06:05:10;;;;;;;5.55;3.38;;;;;;;;;;5071856;28;20016;-86
2021/06/30 06:07:36;;;;;;;6.93;3.65;;;;;;;;;;5066591;28;20111;-86
2021/06/30 06:10:01;;;;;;;5.25;2.97;;;;;;;;;;5067444;28;22432;-86
2021/06/30 06:12:27;;;;;;;5.05;3.63;;;;;;;;;;5056942;28;20021;-85
2021/06/30 06:14:53;;;;;;;8.73;3.50;;;;;;;;;;5062626;28;20024;-86
2021/06/30 06:17:18;;;;;;;5.40;3.13;;;;;;;;;;5054381;28;20098;-86
2021/06/30 06:19:43;;;;;;;6.07;3.05;;;;;;;;;;5065593;28;20538;-86
2021/06/30 06:22:09;;;;;;;5.82;4.15;;;;;;;;;;5070818;28;20020;-85
2021/06/30 06:24:34;;;;;;;4.32;3.53;;;;;;;;;;5058226;28;20048;-87
2021/06/30 06:27:00;;;;;;;5.15;2.92;;;;;;;;;;5057360;28;20060;-86
2021/06/30 06:29:25;;;;;;;4.63;2.95;;;;;;;;;;5062989;28;20070;-86
2021/06/30 06:31:51;;;;;;;4.90;3.10;;;;;;;;;;5052471;28;20021;-85
2021/06/30 06:34:20;;;;;;;5.07;3.50;;;;;;;;;;5073014;28;20019;-87
2021/06/30 06:36:46;;;;;;;8.05;3.60;;;;;;;;;;5067755;28;20023;-86
2021/06/30 06:39:12;;;;;;;5.60;3.33;;;;;;;;;;5065591;28;20024;-86
2021/06/30 06:41:37;;;;;;;5.65;2.92;;;;;;;;;;5072834;28;20021;-87
2021/06/30 06:44:02;;;;;;;7.30;3.20;;;;;;;;;;5061897;28;20127;-86
2021/06/30 06:46:28;;;;;;;4.07;3.00;;;;;;;;;;5069245;28;20028;-86
2021/06/30 06:48:53;;;;;;;4.75;3.00;;;;;;;;;;5053246;28;20112;-87
2021/06/30 06:51:18;;;;;;;4.55;3.28;;;;;;;;;;5066582;28;20461;-86
2021/06/30 06:53:43;;;;;;;6.10;3.10;;;;;;;;;;5072640;28;20025;-86
2021/06/30 06:56:11;;;;;;;7.85;2.90;;;;;;;;;;5060725;28;20032;-86
2021/06/30 06:58:37;;;;;;;5.97;3.35;;;;;;;;;;5056112;28;20053;-88
2021/06/30 07:01:06;;;;;;;6.80;3.42;;;;;;;;;;5051292;28;20448;-85
2021/06/30 07:03:32;;;;;;;8.02;3.45;;;;;;;;;;5053195;28;20027;-85
2021/06/30 07:05:57;;;;;;;10.55;3.50;;;;;;;;;;5086950;28;20480;-84
2021/06/30 07:08:22;;;;;;;9.23;4.28;;;;;;;;;;5056426;28;20032;-85
2021/06/30 07:10:47;;;;;;;5.22;3.80;;;;;;;;;;5064134;28;20020;-84
2021/06/30 07:13:13;;;;;;;7.88;3.90;;;;;;;;;;5051948;28;20017;-84
2021/06/30 07:15:41;;;;;;;6.82;4.18;;;;;;;;;;5058783;28;20028;-86
2021/06/30 07:18:10;;;;;;;7.82;4.47;;;;;;;;;;5058505;28;20017;-84
2021/06/30 07:20:36;;;;;;;8.40;5.18;;;;;;;;;;5061858;28;20486;-86
2021/06/30 07:23:01;;;;;;;8.05;4.97;;;;;;;;;;5060811;28;20052;-85
2021/06/30 07:25:26;;;;;;;9.30;5.20;;;;;;;;;;5069349;28;20051;-85
2021/06/30 07:27:51;;;;;;;10.60;6.03;;;;;;;;;;5055390;28;20025;-86
2021/06/30 07:30:16;;;;;;;9.48;5.47;;;;;;;;;;5052743;28;20028;-85
2021/06/30 07:32:42;;;;;;;9.35;5.28;;;;;;;;;;5054794;28;20468;-84
2021/06/30 07:35:07;;;;;;;10.52;5.50;;;;;;;;;;5052413;28;20021;-85
2021/06/30 07:37:33;;;;;;;7.07;5.00;;;;;;;;;;5058378;28;20542;-84
2021/06/30 07:39:58;;;;;;;8.18;5.25;;;;;;;;;;5052240;28;20472;-85
2021/06/30 07:42:24;;;;;;;7.78;4.55;;;;;;;;;;5064589;28;20069;-86
2021/06/30 07:44:49;;;;;;;7.75;4.40;;;;;;;;;;5066759;28;20029;-85
2021/06/30 07:47:15;;;;;;;9.02;5.47;;;;;;;;;;5055761;28;20102;-85
2021/06/30 07:49:40;;;;;;;8.18;5.05;;;;;;;;;;5058058;28;20124;-84
2021/06/30 07:52:06;;;;;;;9.38;5.38;;;;;;;;;;5053308;28;20025;-85
2021/06/30 07:54:33;;;;;;;8.40;5.65;;;;;;;;;;5065041;28;20043;-84
2021/06/30 07:56:58;;;;;;;12.73;5.43;;;;;;;;;;5071331;28;20380;-85
2021/06/30 07:59:23;;;;;;;9.13;5.50;;;;;;;;;;5066894;28;20027;-85
2021/06/30 08:01:48;;;;;;;10.77;5.80;;;;;;;;;;5071220;28;20024;-84
2021/06/30 08:04:14;;;;;;;8.35;5.90;;;;;;;;;;5059147;28;20407;-85
2021/06/30 08:06:39;;;;;;;13.18;7.05;;;;;;;;;;5068239;28;20012;-84
2021/06/30 08:09:04;;;;;;;11.18;6.13;;;;;;;;;;5071523;28;20101;-85
2021/06/30 08:11:30;;;;;;;9.88;5.60;;;;;;;;;;5071137;28;20410;-85
2021/06/30 08:13:55;;;;;;;12.77;6.72;;;;;;;;;;5071398;28;20024;-85
2021/06/30 08:16:21;;;;;;;9.50;6.20;;;;;;;;;;5056321;28;20032;-84
2021/06/30 08:18:47;;;;;;;11.10;6.63;;;;;;;;;;5057043;28;20016;-85
2021/06/30 08:21:13;;;;;;;13.63;6.30;;;;;;;;;;5059515;28;20476;-84
2021/06/30 08:23:38;;;;;;;9.88;6.22;;;;;;;;;;5058072;28;20112;-84
2021/06/30 08:26:03;;;;;;;9.75;6.07;;;;;;;;;;5071146;28;20024;-85
2021/06/30 08:28:29;;;;;;;10.68;6.53;;;;;;;;;;5076015;28;20108;-84
2021/06/30 08:30:54;;;;;;;9.32;5.90;;;;;;;;;;5074972;28;20015;-85
2021/06/30 08:33:20;;;;;;;12.95;6.18;;;;;;;;;;5074925;28;20021;-84
2021/06/30 08:35:45;;;;;;;10.25;6.47;;;;;;;;;;5060707;28;20017;-84
2021/06/30 08:38:10;;;;;;;10.85;6.60;;;;;;;;;;5074880;28;20028;-84
2021/06/30 08:40:37;;;;;;;9.48;6.40;;;;;;;;;;5074459;28;20025;-85
2021/06/30 08:43:03;;;;;;;10.77;6.65;;;;;;;;;;5074703;28;20567;-85
2021/06/30 08:45:28;;;;;;;9.93;6.45;;;;;;;;;;5073234;28;20055;-85
2021/06/30 08:47:56;;;;;;;11.93;6.57;;;;;;;;;;5072936;28;20027;-84
2021/06/30 08:50:22;;;;;;;10.82;6.75;;;;;;;;;;5074606;28;20384;-84
2021/06/30 08:52:48;;;;;;;11.52;6.43;;;;;;;;;;5072117;28;20016;-84
2021/06/30 08:55:15;;;;;;;9.65;6.13;;;;;;;;;;5056364;28;20021;-84
2021/06/30 08:57:43;;;;;;;10.85;6.35;;;;;;;;;;5067409;28;20017;-83
2021/06/30 09:00:08;;;;;;;9.48;6.68;;;;;;;;;;5066649;28;20471;-84
2021/06/30 09:02:33;;;;;;;10.30;6.18;;;;;;;;;;5074331;28;20025;-84
2021/06/30 09:07:43;;;;;;;11.05;7.32;;;;;;;;;;5059686;28;20055;-84
2021/06/30 09:10:27;;;;;;;10.20;7.32;;;;;;;;;;5073950;28;20016;-84
2021/06/30 09:12:52;;;;;;;12.07;7.80;;;;;;;;;;5063801;28;20112;-84
2021/06/30 09:15:19;;;;;;;14.23;7.97;;;;;;;;;;5069094;28;20523;-84
2021/06/30 09:17:46;;;;;;;12.07;7.88;;;;;;;;;;5064462;28;20024;-84
2021/06/30 09:20:11;;;;;;;13.82;7.53;;;;;;;;;;5073705;28;20024;-85
2021/06/30 09:22:44;;;;;;;12.88;7.63;;;;;;;;;;5075206;28;20104;-84
2021/06/30 09:25:24;;;;;;;11.98;6.38;;;;;;;;;;5073714;28;20050;-84
2021/06/30 09:27:49;;;;;;;13.30;7.47;;;;;;;;;;5073809;28;20119;-84
2021/06/30 09:30:15;;;;;;;12.05;7.03;;;;;;;;;;5064361;28;20412;-84
2021/06/30 09:32:57;;;;;;;14.57;6.85;;;;;;;;;;5049926;28;20025;-84
2021/06/30 09:35:30;;;;;;;13.88;6.78;;;;;;;;;;5052059;28;20116;-84
2021/06/30 09:37:55;;;;;;;10.55;6.90;;;;;;;;;;5052056;28;20045;-85
2021/06/30 09:40:21;;;;;;;12.80;7.43;;;;;;;;;;5053734;28;20087;-84
2021/06/30 09:42:46;;;;;;;14.10;7.32;;;;;;;;;;5052209;28;20029;-85
2021/06/30 09:45:19;;;;;;;12.45;7.35;;;;;;;;;;5053049;28;20491;-85
2021/06/30 09:47:46;;;;;;;14.15;8.55;;;;;;;;;;5068435;28;20070;-84
2021/06/30 09:50:11;;;;;;;14.50;8.73;;;;;;;;;;5071750;28;20025;-85
2021/06/30 09:52:38;;;;;;;14.07;8.93;;;;;;;;;;5064869;28;20017;-84
2021/06/30 09:55:21;;;;;;;13.88;9.10;;;;;;;;;;5057258;28;20028;-84
2021/06/30 09:57:46;;;;;;;15.23;9.90;;;;;;;;;;5054139;28;20052;-85
2021/06/30 10:00:12;;;;;;;14.15;9.98;;;;;;;;;;5051532;28;20048;-85
2021/06/30 10:02:39;;;;;;;14.80;10.95;;;;;;;;;;5056901;28;20032;-85
2021/06/30 10:05:04;;;;;;;18.40;11.68;;;;;;;;;;5067209;28;20016;-86
2021/06/30 10:07:29;;;;;;;15.63;10.93;;;;;;;;;;5062851;28;20666;-86
2021/06/30 10:09:54;;;;;;;15.88;10.68;;;;;;;;;;5071759;28;20482;-85
2021/06/30 10:12:24;;;;;;;17.85;11.48;;;;;;;;;;5070671;28;20020;-86
2021/06/30 10:14:51;;;;;;;17.02;9.93;;;;;;;;;;5068259;28;20029;-88
2021/06/30 10:17:17;;;;;;;15.40;10.43;;;;;;;;;;5072718;28;20021;-87
2021/06/30 10:19:43;;;;;;;15.10;8.82;;;;;;;;;;5071683;28;20035;-86
2021/06/30 10:22:10;;;;;;;13.98;8.73;;;;;;;;;;5051175;28;20033;-87
2021/06/30 10:24:36;;;;;;;20.00;9.98;;;;;;;;;;5053604;28;20072;-86
2021/06/30 10:27:01;;;;;;;14.55;9.57;;;;;;;;;;5052542;28;20052;-87
2021/06/30 10:29:28;;;;;;;14.95;10.45;;;;;;;;;;5054867;28;20111;-86
2021/06/30 10:31:57;;;;;;;15.15;10.77;;;;;;;;;;5052875;28;20017;-86
2021/06/30 10:34:32;;;;;;;14.55;10.48;;;;;;;;;;5085778;28;20365;-86
2021/06/30 10:36:57;;;;;;;15.50;10.02;;;;;;;;;;5081035;28;20472;-86
2021/06/30 10:39:34;;;;;;;17.60;10.70;;;;;;;;;;5078472;28;20041;-87
2021/06/30 10:42:07;;;;;;;14.98;10.38;;;;;;;;;;5046504;28;20032;-86
2021/06/30 10:44:44;;;;;;;13.13;9.43;;;;;;;;;;5056913;28;20040;-86
2021/06/30 10:47:27;;;;;;;14.85;9.68;;;;;;;;;;5062187;28;20149;-85
2021/06/30 10:50:12;;;;;;;14.65;9.13;;;;;;;;;;5055731;28;20024;-87
2021/06/30 10:52:37;;;;;;;11.18;8.05;;;;;;;;;;5056110;28;20036;-86
2021/06/30 10:55:03;;;;;;;12.93;7.60;;;;;;;;;;5071322;28;20012;-86
2021/06/30 10:57:31;;;;;;;11.00;7.15;;;;;;;;;;5072211;28;20380;-86
2021/06/30 11:00:03;;;;;;;10.05;6.93;;;;;;;;;;5071983;28;20074;-87
2021/06/30 11:02:34;;;;;;;16.58;6.85;;;;;;;;;;5072166;28;20017;-87
2021/06/30 11:05:14;;;;;;;14.50;7.50;;;;;;;;;;5066616;28;20024;-87
2021/06/30 11:07:40;;;;;;;9.27;6.68;;;;;;;;;;5072085;28;20549;-85
2021/06/30 11:10:19;;;;;;;7.15;5.75;;;;;;;;;;5071893;28;20025;-86
2021/06/30 11:12:57;;;;;;;7.45;5.63;;;;;;;;;;5060855;28;20017;-86
2021/06/30 11:15:51;;;;;;;8.73;4.90;;;;;;;;;;5065957;28;20035;-86
2021/06/30 11:18:16;;;;;;;6.45;4.63;;;;;;;;;;5061100;28;20028;-87
2021/06/30 11:20:49;;;;;;;10.85;5.10;;;;;;;;;;5058791;28;20058;-88
2021/06/30 11:23:20;;;;;;;8.82;6.13;;;;;;;;;;5071866;28;20059;-87
2021/06/30 11:25:45;;;;;;;8.25;6.35;;;;;;;;;;5065841;28;20017;-87
2021/06/30 11:28:36;;;;;;;12.48;7.75;;;;;;;;;;5063874;28;20013;-87
2021/06/30 11:31:34;;;;;;;12.55;8.98;;;;;;;;;;5048288;28;20028;-87
2021/06/30 11:34:11;;;;;;;10.38;7.60;;;;;;;;;;5067602;28;20025;-87
2021/06/30 11:36:37;;;;;;;12.27;8.70;;;;;;;;;;5064351;28;20009;-87
2021/06/30 11:39:09;;;;;;;12.15;8.57;;;;;;;;;;5071473;28;20158;-87
2021/06/30 11:41:41;;;;;;;13.70;9.00;;;;;;;;;;5060889;28;20023;-87
2021/06/30 11:44:10;;;;;;;13.77;8.85;;;;;;;;;;5068880;28;20024;-87
2021/06/30 11:46:35;;;;;;;12.10;8.40;;;;;;;;;;5071611;28;20027;-87
2021/06/30 11:49:00;;;;;;;11.85;7.47;;;;;;;;;;5073051;28;20025;-87
2021/06/30 11:51:25;;;;;;;12.98;7.90;;;;;;;;;;5071472;28;20023;-87
2021/06/30 11:53:51;;;;;;;14.60;8.23;;;;;;;;;;5071581;28;20502;-87
2021/06/30 11:56:31;;;;;;;10.68;7.47;;;;;;;;;;5052619;28;20468;-87
2021/06/30 11:58:57;;;;;;;12.13;7.78;;;;;;;;;;5061917;28;20108;-87
2021/06/30 12:01:27;;;;;;;14.15;8.23;;;;;;;;;;5073753;28;20107;-87
2021/06/30 12:04:10;;;;;;;10.38;7.47;;;;;;;;;;5075549;28;20024;-87
2021/06/30 12:06:36;;;;;;;11.80;8.38;;;;;;;;;;5062624;28;20053;-87
2021/06/30 12:09:09;;;;;;;9.07;6.93;;;;;;;;;;5076510;28;20476;-86
2021/06/30 12:11:35;;;;;;;13.75;6.55;;;;;;;;;;5075348;28;20502;-87
2021/06/30 12:14:04;;;;;;;10.82;6.78;;;;;;;;;;5075294;28;20099;-87
2021/06/30 12:16:48;;;;;;;9.18;6.03;;;;;;;;;;5075404;28;20023;-87
2021/06/30 12:19:18;;;;;;;8.90;6.53;;;;;;;;;;5043711;28;20021;-87
2021/06/30 12:21:44;;;;;;;11.82;6.88;;;;;;;;;;5103515;28;20460;-87
2021/06/30 12:24:17;;;;;;;10.15;6.82;;;;;;;;;;5075141;28;20043;-87
2021/06/30 12:27:01;;;;;;;9.15;5.68;;;;;;;;;;5074889;28;20024;-87
2021/06/30 12:29:26;;;;;;;11.15;6.75;;;;;;;;;;5043593;28;20484;-86
2021/06/30 12:31:52;;;;;;;9.05;6.22;;;;;;;;;;5058252;28;20102;-87
2021/06/30 12:34:17;;;;;;;8.98;6.57;;;;;;;;;;5076120;28;20038;-87
2021/06/30 12:36:42;;;;;;;10.23;7.05;;;;;;;;;;5074844;28;20021;-86
2021/06/30 12:39:17;;;;;;;9.52;5.72;;;;;;;;;;5070571;28;20017;-86
2021/06/30 12:42:02;;;;;;;8.15;5.93;;;;;;;;;;5066179;28;20027;-86
2021/06/30 12:44:29;;;;;;;12.70;6.07;;;;;;;;;;5075644;28;20028;-87
2021/06/30 12:47:11;;;;;;;8.80;6.35;;;;;;;;;;5074547;28;20020;-86
2021/06/30 12:49:37;;;;;;;6.50;5.30;;;;;;;;;;5070669;28;20021;-87
2021/06/30 12:52:03;;;;;;;6.07;5.05;;;;;;;;;;5067504;28;20029;-87
2021/06/30 12:54:28;;;;;;;9.63;4.63;;;;;;;;;;5074456;28;20078;-86
2021/06/30 12:57:00;;;;;;;6.13;4.90;;;;;;;;;;5074400;28;20572;-87
2021/06/30 12:59:26;;;;;;;6.47;4.38;;;;;;;;;;5075901;28;20020;-87
2021/06/30 13:01:51;;;;;;;8.25;5.22;;;;;;;;;;5074207;28;20024;-87
2021/06/30 13:04:27;;;;;;;8.60;4.65;;;;;;;;;;5074391;28;20100;-87
2021/06/30 13:06:53;;;;;;;6.63;4.00;;;;;;;;;;5074218;28;20023;-87
2021/06/30 13:09:23;;;;;;;6.80;4.70;;;;;;;;;;5063312;28;20056;-87
2021/06/30 13:11:53;;;;;;;9.55;5.22;;;;;;;;;;5071168;28;20072;-87
2021/06/30 13:14:22;;;;;;;7.63;4.13;;;;;;;;;;5064166;28;20039;-87
2021/06/30 13:16:57;;;;;;;9.65;4.13;;;;;;;;;;5073830;28;20675;-87
2021/06/30 13:19:23;;;;;;;5.50;4.22;;;;;;;;;;5075285;28;20042;-87
2021/06/30 13:21:51;;;;;;;7.32;3.95;;;;;;;;;;5059856;28;20032;-87
2021/06/30 13:24:17;;;;;;;6.97;4.38;;;;;;;;;;5067301;28;20099;-87
2021/06/30 13:27:12;;;;;;;6.13;4.90;;;;;;;;;;5067728;28;20104;-87
2021/06/30 13:34:17;;;;;;;6.90;4.68;;;;;;;;;;5073870;28;20024;-86
2021/06/30 13:35:30;;;;;;;6.50;4.63;;;;;;;;;;5075102;28;20059;-86
2021/06/30 13:38:06;;;;;;;7.78;4.55;;;;;;;;;;5073807;28;20021;-86
2021/06/30 13:40:32;;;;;;;9.60;5.95;;;;;;;;;;5056715;28;20112;-87
2021/06/30 13:42:59;;;;;;;8.40;5.75;;;;;;;;;;5061483;28;20078;-87
2021/06/30 13:45:25;;;;;;;11.50;6.25;;;;;;;;;;5073658;28;20024;-87
2021/06/30 13:47:50;;;;;;;13.80;6.70;;;;;;;;;;5066948;28;20089;-87
2021/06/30 13:50:16;;;;;;;10.38;6.28;;;;;;;;;;5074615;28;20012;-86
2021/06/30 13:52:41;;;;;;;9.85;5.97;;;;;;;;;;5074498;28;20017;-87
2021/06/30 13:55:07;;;;;;;8.60;5.63;;;;;;;;;;5068665;28;20013;-87
2021/06/30 13:57:32;;;;;;;9.57;4.97;;;;;;;;;;5065397;28;20016;-87
2021/06/30 13:59:57;;;;;;;12.35;5.30;;;;;;;;;;5068910;28;20428;-87
2021/06/30 14:02:22;;;;;;;8.93;5.32;;;;;;;;;;5063696;28;20079;-86
2021/06/30 14:04:47;;;;;;;10.40;4.82;;;;;;;;;;5068918;28;20017;-87
2021/06/30 14:07:13;;;;;;;8.57;4.18;;;;;;;;;;5073428;28;20118;-87
2021/06/30 14:09:38;;;;;;;9.60;4.10;;;;;;;;;;5073681;28;20042;-87
2021/06/30 14:12:03;;;;;;;6.00;4.18;;;;;;;;;;5072352;28;20020;-86
2021/06/30 14:14:28;;;;;;;6.50;4.00;;;;;;;;;;5054301;28;20400;-87
2021/06/30 14:16:54;;;;;;;5.82;3.53;;;;;;;;;;5070480;28;20070;-86
2021/06/30 14:19:20;;;;;;;8.70;3.85;;;;;;;;;;5073270;28;20468;-87
2021/06/30 14:21:45;;;;;;;8.73;3.25;;;;;;;;;;5072937;28;20021;-87
2021/06/30 14:24:10;;;;;;;6.72;3.92;;;;;;;;;;5072012;28;20023;-86
2021/06/30 14:26:35;;;;;;;4.88;3.78;;;;;;;;;;5073979;28;20051;-87
2021/06/30 14:29:01;;;;;;;5.45;3.72;;;;;;;;;;5073829;28;20024;-87
2021/06/30 14:31:26;;;;;;;6.05;3.83;;;;;;;;;;5072714;28;20012;-87
2021/06/30 14:33:52;;;;;;;6.75;3.80;;;;;;;;;;5072639;28;20012;-86
2021/06/30 14:36:17;;;;;;;7.40;3.80;;;;;;;;;;5072832;28;20023;-87
2021/06/30 14:38:42;;;;;;;5.47;3.55;;;;;;;;;;5072570;28;20054;-86
2021/06/30 14:41:07;;;;;;;7.03;3.47;;;;;;;;;;5072550;28;20019;-86
2021/06/30 14:43:33;;;;;;;6.65;3.63;;;;;;;;;;5060353;28;20410;-87